Terminal Aerodrome Forecast
Issued by NWS

Home | Current Version | Previous Version | Graphics & Text | Print | Product List | Glossary On
Versions: 1 2 3 4 5 6 7 8 9 10 11 12 13 14 15 16 17 18 19 20 21 22 23 24 25 26
000
FTUS43 KGRB 150326 AAB
TAFRHI
TAF AMD
KRHI 150326Z 1503/1524 01004KT 5SM BR BKN006
     FM150700 VRB03KT 1/2SM FG BKN002
      TEMPO 1509/1513 1/4SM FG
     FM151400 06004KT P6SM SCT015 BKN025
     FM151700 10006KT P6SM SCT035=

USA.gov is the U.S. government's official web portal to all federal, state and local government web resources and services.